Time;durP1;ratioP1;P1;durP2;ratioP2;P2;SDS_P1;SDS_P2;PMS_P1;PMS_P2;Temp;Humidity;BMP_temperature;BMP_pressure;BME280_temperature;BME280_humidity;BME280_pressure;Samples;Min_cycle;Max_cycle;Signal;HPM_P1;HPM_P2
2022/06/14 00:01:43;;;;;;;4.82;1.80;;;;;;;21.40;40.40;102512.66;4878852;29;20032;-81
2022/06/14 00:04:08;;;;;;;7.95;2.20;;;;;;;21.40;40.16;102517.03;4862115;29;20045;-81
2022/06/14 00:06:35;;;;;;;4.18;1.52;;;;;;;21.38;40.32;102509.16;4876022;29;20058;-82
2022/06/14 00:09:01;;;;;;;4.55;1.80;;;;;;;21.39;40.54;102516.16;4858384;29;20021;-82
2022/06/14 00:11:33;;;;;;;5.07;1.60;;;;;;;21.39;40.17;102518.78;4842732;29;20048;-81
2022/06/14 00:14:01;;;;;;;5.93;1.77;;;;;;;21.32;40.50;102515.28;4857419;29;20800;-81
2022/06/14 00:16:29;;;;;;;3.83;1.60;;;;;;;21.32;40.87;102515.28;4856415;29;20049;-81
2022/06/14 00:18:54;;;;;;;6.15;2.00;;;;;;;21.33;40.65;102514.41;4847145;29;20037;-81
2022/06/14 00:21:21;;;;;;;3.97;1.50;;;;;;;21.32;40.50;102511.81;4867475;29;20033;-81
2022/06/14 00:23:46;;;;;;;5.40;1.80;;;;;;;21.28;40.50;102513.53;4835632;29;20389;-81
2022/06/14 00:26:12;;;;;;;3.40;1.65;;;;;;;21.31;40.58;102526.63;4851862;29;20033;-81
2022/06/14 00:28:40;;;;;;;6.00;1.80;;;;;;;21.31;40.58;102526.63;4852444;29;20116;-81
2022/06/14 00:31:16;;;;;;;3.63;1.55;;;;;;;21.29;40.76;102523.13;4852688;29;20041;-81
2022/06/14 00:33:42;;;;;;;5.25;1.65;;;;;;;21.28;40.79;102518.78;4868886;29;20101;-81
2022/06/14 00:36:19;;;;;;;5.38;1.85;;;;;;;21.31;40.64;102520.50;4852290;29;20128;-81
2022/06/14 00:38:44;;;;;;;5.05;1.60;;;;;;;21.30;40.64;102519.66;4853770;29;20041;-81
2022/06/14 00:41:34;;;;;;;4.47;1.60;;;;;;;21.31;40.67;102512.66;4838900;29;20025;-81
2022/06/14 00:44:02;;;;;;;4.85;1.80;;;;;;;21.27;40.81;102514.38;4853070;29;20041;-81
2022/06/14 00:46:35;;;;;;;6.05;1.85;;;;;;;21.29;40.89;102517.00;4854954;29;20036;-82
2022/06/14 00:49:12;;;;;;;4.85;1.80;;;;;;;21.29;40.75;102511.78;4855506;29;20072;-81
2022/06/14 00:51:52;;;;;;;5.38;1.85;;;;;;;21.27;40.87;102508.28;4856182;29;20089;-82
2022/06/14 00:54:25;;;;;;;3.25;1.45;;;;;;;21.28;40.96;102510.03;4856184;29;20037;-82
2022/06/14 00:56:56;;;;;;;7.15;2.05;;;;;;;21.24;40.97;102505.66;4860399;29;20029;-81
2022/06/14 00:59:45;;;;;;;5.00;1.90;;;;;;;21.26;40.83;102509.16;4881023;29;20028;-82
2022/06/14 01:02:40;;;;;;;6.05;1.60;;;;;;;21.25;40.87;102505.69;4882373;29;20069;-82
2022/06/14 01:05:15;;;;;;;;;;;;;;;21.26;40.94;102504.78;4812185;29;20440;-82
2022/06/14 01:07:58;;;;;;;4.78;1.77;;;;;;;21.23;41.01;102501.28;4840649;29;19984;-82
2022/06/14 01:10:34;;;;;;;4.03;1.50;;;;;;;21.18;41.26;102493.44;4839833;29;20040;-82
2022/06/14 01:13:04;;;;;;;6.38;1.95;;;;;;;21.21;41.35;102496.06;4824884;29;20034;-82
2022/06/14 01:15:33;;;;;;;4.57;1.80;;;;;;;21.20;41.31;102493.44;4822703;29;20049;-82
2022/06/14 01:18:10;;;;;;;3.40;1.50;;;;;;;21.17;41.43;102489.94;4837992;29;20046;-82
2022/06/14 01:21:09;;;;;;;6.05;1.75;;;;;;;21.14;41.50;102486.44;4839241;29;20066;-82
2022/06/14 01:23:36;;;;;;;3.65;1.50;;;;;;;21.15;41.45;102488.22;4823551;29;20034;-82
2022/06/14 01:26:16;;;;;;;4.32;1.73;;;;;;;21.14;41.38;102497.81;4833752;29;20043;-82
2022/06/14 01:28:48;;;;;;;4.25;1.48;;;;;;;21.19;41.53;102494.28;4838977;29;20054;-81
2022/06/14 01:31:20;;;;;;;4.78;1.90;;;;;;;21.17;41.34;102489.06;4824796;29;20042;-82
2022/06/14 01:34:02;;;;;;;3.15;1.30;;;;;;;21.08;41.57;102486.47;4838620;29;20030;-82
2022/06/14 01:36:39;;;;;;;6.60;1.73;;;;;;;21.11;41.56;102483.84;4849857;29;20136;-82
2022/06/14 01:39:09;;;;;;;3.53;1.75;;;;;;;21.11;41.49;102479.47;4876398;29;20030;-81
2022/06/14 01:42:13;;;;;;;4.45;1.50;;;;;;;21.10;41.62;102482.97;4862845;29;20029;-83
2022/06/14 01:44:49;;;;;;;4.60;1.50;;;;;;;21.06;41.78;102475.97;4861059;29;20029;-82
2022/06/14 01:47:47;;;;;;;4.72;1.52;;;;;;;21.09;41.55;102477.72;4858374;29;20274;-82
2022/06/14 01:53:57;;;;;;;4.13;1.35;;;;;;;21.11;41.52;102481.22;4878006;29;20053;-82
2022/06/14 01:56:46;;;;;;;4.93;1.70;;;;;;;21.09;41.40;102472.47;4863519;29;20041;-82
2022/06/14 01:59:18;;;;;;;6.70;1.73;;;;;;;21.10;41.59;102474.22;4879312;29;20029;-82
2022/06/14 02:02:34;;;;;;;3.70;1.40;;;;;;;21.06;41.69;102465.50;4879010;29;20392;-82
2022/06/14 02:05:22;;;;;;;5.10;1.70;;;;;;;21.06;41.68;102470.75;4811975;29;20038;-82
2022/06/14 02:08:12;;;;;;;5.32;1.63;;;;;;;21.09;41.73;102473.34;4823661;29;20075;-82
2022/06/14 02:11:12;;;;;;;5.13;1.80;;;;;;;21.05;41.77;102468.97;4840026;29;20075;-82
2022/06/14 02:13:57;;;;;;;5.30;1.42;;;;;;;21.05;41.63;102466.34;4823887;29;20196;-82
2022/06/14 02:16:29;;;;;;;4.05;1.38;;;;;;;21.06;41.48;102464.63;4823042;29;20058;-82
2022/06/14 02:19:20;;;;;;;5.85;1.55;;;;;;;21.07;41.73;102462.00;4822463;29;20042;-82
2022/06/14 02:21:52;;;;;;;3.45;1.52;;;;;;;21.09;41.74;102459.38;4820187;29;20046;-82
2022/06/14 02:24:47;;;;;;;3.00;1.30;;;;;;;21.06;41.61;102465.50;4828680;29;20050;-81
2022/06/14 03:03:34;;;;;;;3.75;1.50;;;;;;;20.98;41.89;102456.75;5545165;23;20073;-80
2022/06/14 03:06:15;;;;;;;3.67;1.50;;;;;;;20.94;42.23;102455.00;4869748;29;20064;-81
2022/06/14 03:09:00;;;;;;;4.10;1.45;;;;;;;20.91;42.14;102455.88;4876225;29;20039;-80
2022/06/14 03:12:08;;;;;;;5.28;1.70;;;;;;;20.95;42.05;102448.91;4837202;29;20099;-81
2022/06/14 03:15:11;;;;;;;6.45;1.73;;;;;;;20.87;42.24;102442.78;4821406;29;20090;-80
2022/06/14 03:18:02;;;;;;;3.78;1.33;;;;;;;20.87;42.17;102451.50;4836243;29;20130;-81
2022/06/14 03:21:02;;;;;;;4.25;1.42;;;;;;;20.88;42.04;102445.41;4837040;29;20106;-81
2022/06/14 03:23:54;;;;;;;4.38;1.42;;;;;;;20.86;42.15;102443.63;4838787;29;20057;-81
2022/06/14 03:26:53;;;;;;;2.60;1.30;;;;;;;20.90;42.06;102441.03;4843927;29;20026;-81
2022/06/14 03:29:46;;;;;;;4.00;1.67;;;;;;;20.89;42.23;102441.03;4821532;29;20080;-80
2022/06/14 03:32:35;;;;;;;3.90;1.48;;;;;;;20.83;42.19;102443.63;4769583;30;20040;-80
2022/06/14 03:35:07;;;;;;;3.47;1.50;;;;;;;20.85;42.21;102452.38;4768456;30;20048;-80
2022/06/14 03:37:33;;;;;;;2.38;1.38;;;;;;;20.83;42.23;102449.75;4782693;30;20088;-80
2022/06/14 03:40:05;;;;;;;4.45;1.50;;;;;;;20.85;42.24;102442.78;4783989;30;20036;-81
2022/06/14 03:42:36;;;;;;;6.70;1.70;;;;;;;20.86;42.38;102444.53;4791324;29;20090;-81
2022/06/14 03:45:07;;;;;;;5.55;1.48;;;;;;;20.87;42.12;102446.25;4837018;29;20508;-80
2022/06/14 03:47:34;;;;;;;2.97;1.50;;;;;;;20.88;42.25;102449.75;4827024;29;20047;-81
2022/06/14 03:50:15;;;;;;;4.15;1.90;;;;;;;20.87;42.43;102451.50;4834078;29;20053;-80
2022/06/14 03:53:11;;;;;;;5.05;1.60;;;;;;;20.85;42.24;102454.97;4833215;29;20026;-81
2022/06/14 03:55:59;;;;;;;4.28;1.58;;;;;;;20.86;42.40;102459.34;4816291;29;20374;-80
2022/06/14 03:59:06;;;;;;;4.47;1.80;;;;;;;20.92;42.16;102451.50;4816960;29;20030;-80
2022/06/14 04:01:45;;;;;;;4.63;1.55;;;;;;;20.93;42.08;102455.88;4816519;29;20053;-80
2022/06/14 04:04:41;;;;;;;3.83;1.58;;;;;;;20.91;42.07;102450.63;4816497;29;20118;-80
2022/06/14 04:07:07;;;;;;;4.28;1.55;;;;;;;20.92;42.17;102460.22;4822166;29;20093;-80
2022/06/14 04:09:44;;;;;;;3.85;1.73;;;;;;;20.93;42.13;102461.13;4823195;29;20050;-80
2022/06/14 04:12:20;;;;;;;3.78;1.35;;;;;;;20.98;41.96;102459.38;4820346;29;20090;-80
2022/06/14 04:15:13;;;;;;;5.05;1.50;;;;;;;20.96;42.16;102454.13;4833729;29;20061;-82
2022/06/14 04:17:51;;;;;;;5.13;1.63;;;;;;;20.96;42.11;102443.66;4818080;29;20048;-80
2022/06/14 04:20:37;;;;;;;4.30;1.52;;;;;;;20.94;42.38;102448.00;4821146;29;20031;-80
2022/06/14 04:33:39;;;;;;;4.63;1.30;;;;;;;21.02;42.26;102455.91;5875194;23;21140;-81
2022/06/14 04:36:24;;;;;;;3.05;1.30;;;;;;;21.09;42.04;102452.41;4875583;29;20053;-81
2022/06/14 04:38:55;;;;;;;4.35;1.80;;;;;;;21.34;41.57;102455.06;4852657;29;20409;-80
2022/06/14 04:41:49;;;;;;;6.32;1.92;;;;;;;21.39;42.00;102460.31;4873319;29;20025;-79
2022/06/14 04:47:23;;;;;;;6.50;2.00;;;;;;;21.36;41.87;102456.81;4853923;29;20050;-81
2022/06/14 04:50:15;;;;;;;11.88;2.20;;;;;;;21.34;42.07;102450.69;4836141;29;20030;-80
2022/06/14 04:52:53;;;;;;;8.52;2.10;;;;;;;21.35;41.65;102460.28;4844530;29;20022;-80
2022/06/14 04:55:24;;;;;;;7.68;2.10;;;;;;;21.37;41.80;102461.16;4854919;29;20082;-80
2022/06/14 04:58:11;;;;;;;9.23;2.30;;;;;;;21.41;41.39;102469.94;4838017;29;20049;-81
2022/06/14 05:00:57;;;;;;;11.23;2.22;;;;;;;21.45;40.92;102465.53;4834446;29;20044;-78
2022/06/14 05:03:30;;;;;;;7.05;1.75;;;;;;;21.58;41.79;102475.19;4850447;29;20037;-80
2022/06/14 05:06:04;;;;;;;9.23;1.90;;;;;;;21.64;41.50;102466.41;4847413;29;20022;-78
2022/06/14 05:08:41;;;;;;;7.75;2.00;;;;;;;21.52;40.92;102473.41;4830136;29;20038;-79
2022/06/14 05:11:28;;;;;;;9.07;2.45;;;;;;;21.52;40.62;102473.41;4836936;29;20117;-78
2022/06/14 05:14:03;;;;;;;12.82;2.97;;;;;;;21.56;40.36;102469.06;4846813;29;20116;-77
2022/06/14 05:16:38;;;;;;;8.30;3.20;;;;;;;21.60;40.20;102467.28;4846317;29;20396;-77
2022/06/14 05:19:04;;;;;;;8.55;2.83;;;;;;;21.61;40.12;102461.19;4830585;29;20178;-77
2022/06/14 05:21:36;;;;;;;9.10;2.53;;;;;;;21.63;39.98;102468.19;4829782;29;20065;-77
2022/06/14 05:24:04;;;;;;;10.88;2.63;;;;;;;21.64;39.74;102462.06;4846790;29;20034;-76
2022/06/14 05:26:29;;;;;;;9.18;2.30;;;;;;;21.67;39.67;102466.44;4815060;29;20102;-78
2022/06/14 05:29:16;;;;;;;8.57;2.30;;;;;;;21.67;39.53;102458.59;4831566;29;20030;-78
2022/06/14 05:31:54;;;;;;;10.05;2.60;;;;;;;21.81;39.70;102459.41;4850319;29;20113;-77
2022/06/14 05:34:28;;;;;;;8.40;2.28;;;;;;;21.93;39.78;102459.41;4834188;29;20036;-78
2022/06/14 05:36:57;;;;;;;11.20;2.30;;;;;;;21.98;40.22;102457.63;4833355;29;20038;-78
2022/06/14 05:39:35;;;;;;;4.97;1.92;;;;;;;22.04;40.22;102461.13;4830235;29;20022;-77
2022/06/14 05:42:11;;;;;;;6.40;2.20;;;;;;;22.09;40.36;102460.22;4831145;29;20030;-77
2022/06/14 05:44:49;;;;;;;6.40;2.20;;;;;;;22.15;40.61;102459.34;4848849;29;20075;-78
2022/06/14 05:47:21;;;;;;;6.63;2.65;;;;;;;22.23;40.63;102464.59;4845747;29;20046;-76
2022/06/14 05:49:52;;;;;;;7.10;2.20;;;;;;;22.30;40.38;102471.59;4828963;29;20034;-76
2022/06/14 05:52:28;;;;;;;5.05;2.17;;;;;;;22.29;40.46;102468.06;4832917;29;20549;-75
2022/06/14 05:55:15;;;;;;;6.20;2.70;;;;;;;22.31;40.53;102463.69;4829506;29;20034;-76
2022/06/14 05:57:55;;;;;;;7.85;3.13;;;;;;;22.37;40.40;102466.28;4829217;29;20121;-76
2022/06/14 06:00:50;;;;;;;5.93;2.38;;;;;;;22.47;40.30;102469.75;4845390;29;20391;-77
2022/06/14 06:03:15;;;;;;;6.63;2.42;;;;;;;22.53;40.44;102467.09;4826980;29;20038;-76
2022/06/14 06:05:44;;;;;;;5.10;2.10;;;;;;;22.59;40.36;102466.19;4828583;29;20125;-76
2022/06/14 06:08:32;;;;;;;5.65;2.30;;;;;;;22.63;40.31;102467.94;4828397;29;20037;-76
2022/06/14 06:11:09;;;;;;;5.07;1.85;;;;;;;22.77;39.79;102463.47;4845002;29;20139;-76
2022/06/14 06:13:52;;;;;;;5.53;1.80;;;;;;;22.87;39.58;102471.31;4828392;29;20124;-76
2022/06/14 06:16:35;;;;;;;6.03;1.90;;;;;;;22.93;39.62;102468.63;4845228;29;20033;-77
2022/06/14 06:19:17;;;;;;;4.65;2.10;;;;;;;22.97;39.64;102472.97;4828748;29;20074;-77
2022/06/14 06:21:54;;;;;;;4.67;1.97;;;;;;;23.03;39.69;102477.38;4828570;29;20090;-77
2022/06/14 06:24:34;;;;;;;4.43;1.75;;;;;;;23.03;39.50;102467.72;4828735;29;20357;-77
2022/06/14 06:27:06;;;;;;;6.07;1.90;;;;;;;23.03;39.76;102469.50;4828637;29;20068;-77
2022/06/14 06:30:00;;;;;;;5.55;2.33;;;;;;;23.02;39.72;102472.97;4844941;29;20034;-77
2022/06/14 06:32:31;;;;;;;4.70;1.67;;;;;;;22.99;40.11;102477.38;4810752;29;20038;-77
2022/06/14 06:34:58;;;;;;;4.88;1.40;;;;;;;23.01;39.91;102477.38;4835248;29;20029;-78
2022/06/14 06:37:47;;;;;;;5.10;1.80;;;;;;;23.00;39.77;102489.63;4829413;29;20538;-76
2022/06/14 06:40:20;;;;;;;5.28;1.70;;;;;;;23.01;39.83;102480.00;4828530;29;20049;-77
2022/06/14 06:42:53;;;;;;;5.82;1.80;;;;;;;23.03;39.78;102480.00;4828295;29;20529;-77
2022/06/14 06:45:20;;;;;;;;;;;;;;;23.01;40.17;102482.63;4828586;29;20061;-77
2022/06/14 06:47:57;;;;;;;3.13;1.67;;;;;;;23.02;39.79;102476.50;4828149;29;19923;-77
2022/06/14 06:50:33;;;;;;;3.00;1.40;;;;;;;23.05;40.09;102483.47;4828022;29;20405;-76
2022/06/14 06:53:12;;;;;;;7.00;1.60;;;;;;;23.06;39.75;102477.31;4827467;29;20125;-77
2022/06/14 06:55:43;;;;;;;3.08;1.50;;;;;;;23.08;39.68;102480.81;4828185;29;20041;-77
2022/06/14 06:58:32;;;;;;;3.83;1.30;;;;;;;23.11;39.56;102480.81;4844632;29;20114;-77
2022/06/14 07:01:00;;;;;;;3.90;1.48;;;;;;;23.12;39.56;102480.78;4827956;29;20082;-77
2022/06/14 07:04:01;;;;;;;4.20;1.58;;;;;;;23.14;39.92;102479.03;4827827;29;20053;-77
2022/06/14 07:06:31;;;;;;;3.38;1.52;;;;;;;23.17;39.59;102472.91;4797813;29;20137;-77
2022/06/14 07:09:02;;;;;;;3.97;1.52;;;;;;;23.19;39.84;102472.00;4845420;29;20040;-77
2022/06/14 07:11:40;;;;;;;3.15;1.50;;;;;;;23.20;39.81;102470.25;4827879;29;20037;-77
2022/06/14 07:14:14;;;;;;;3.97;1.50;;;;;;;23.15;39.53;102480.78;4828200;29;20078;-76
2022/06/14 07:17:12;;;;;;;3.15;1.50;;;;;;;23.19;39.66;102476.34;4834356;29;20030;-77
2022/06/14 07:19:53;;;;;;;6.95;1.67;;;;;;;23.21;39.41;102477.22;4844062;29;20117;-77
2022/06/14 07:22:37;;;;;;;4.10;1.60;;;;;;;23.21;39.64;102474.59;4827684;29;20026;-77
2022/06/14 07:25:19;;;;;;;2.25;1.23;;;;;;;23.15;39.75;102474.66;4843919;29;20037;-77
2022/06/14 07:27:58;;;;;;;3.55;1.42;;;;;;;23.16;39.61;102474.63;4827405;29;20028;-77
2022/06/14 07:30:41;;;;;;;2.60;1.40;;;;;;;23.17;39.60;102473.75;4827219;29;20030;-77
2022/06/14 07:33:10;;;;;;;2.95;1.20;;;;;;;23.13;40.01;102479.06;4843725;29;20105;-77
2022/06/14 07:35:45;;;;;;;3.53;1.40;;;;;;;23.11;40.03;102476.44;4843575;29;20046;-77
2022/06/14 07:38:15;;;;;;;2.83;1.45;;;;;;;23.13;40.05;102476.44;4827318;29;20036;-77
2022/06/14 07:40:46;;;;;;;3.80;1.45;;;;;;;23.16;39.83;102481.66;4827155;29;20074;-76
2022/06/14 07:43:24;;;;;;;3.38;1.40;;;;;;;23.16;39.63;102479.88;4827303;29;20461;-77
2022/06/14 07:45:50;;;;;;;2.50;1.40;;;;;;;23.12;39.72;102477.28;4827058;29;20073;-77
2022/06/14 07:48:33;;;;;;;4.30;1.40;;;;;;;23.06;39.89;102480.84;4812299;29;20030;-77
2022/06/14 07:51:07;;;;;;;3.88;1.42;;;;;;;22.98;40.20;102474.72;4843470;29;20033;-77
2022/06/14 07:53:38;;;;;;;2.58;1.20;;;;;;;22.98;40.14;102477.38;4827476;29;20030;-76
2022/06/14 07:56:09;;;;;;;2.90;1.08;;;;;;;22.99;40.02;102480.00;4828566;29;20423;-77
2022/06/14 07:58:45;;;;;;;2.78;1.10;;;;;;;22.99;40.36;102477.38;4847608;29;20105;-77
2022/06/14 08:01:31;;;;;;;1.92;1.05;;;;;;;22.99;40.09;102477.38;4843504;29;20030;-76
2022/06/14 08:04:10;;;;;;;1.75;1.10;;;;;;;23.02;40.05;102481.75;4826691;29;20065;-77
2022/06/14 08:06:46;;;;;;;4.40;1.20;;;;;;;23.00;40.05;102480.88;4827028;29;20552;-77
2022/06/14 08:09:17;;;;;;;3.92;1.30;;;;;;;22.97;40.20;102472.97;4826953;29;20033;-77
2022/06/14 08:11:49;;;;;;;3.45;1.40;;;;;;;22.95;39.90;102478.25;4826929;29;20036;-77
2022/06/14 08:14:39;;;;;;;2.78;1.20;;;;;;;23.00;40.14;102478.25;4827075;29;20034;-77
2022/06/14 08:17:10;;;;;;;3.13;1.02;;;;;;;23.05;40.17;102480.84;4826726;29;20033;-76
2022/06/14 08:19:44;;;;;;;3.28;1.30;;;;;;;23.02;40.31;102483.47;4826764;29;20022;-76
2022/06/14 08:22:16;;;;;;;2.58;1.20;;;;;;;23.00;40.08;102475.63;4843162;29;20030;-76
2022/06/14 08:24:47;;;;;;;2.47;1.20;;;;;;;23.02;40.12;102471.25;4843097;29;20029;-76
2022/06/14 08:27:22;;;;;;;2.38;1.13;;;;;;;23.05;40.17;102473.84;4826780;29;20079;-76
2022/06/14 08:30:06;;;;;;;2.22;1.27;;;;;;;23.04;40.42;102465.97;4826607;29;20072;-77
2022/06/14 08:32:46;;;;;;;3.28;1.20;;;;;;;23.03;40.19;102465.09;4842976;29;20030;-76
2022/06/14 08:35:24;;;;;;;2.47;1.20;;;;;;;23.07;40.36;102468.59;4826875;29;20062;-77
2022/06/14 08:38:15;;;;;;;1.27;0.90;;;;;;;23.10;40.39;102463.31;4826808;29;20054;-77
2022/06/14 08:40:52;;;;;;;2.42;1.20;;;;;;;23.10;40.04;102461.53;4849173;29;20100;-77
2022/06/14 08:43:26;;;;;;;4.00;1.00;;;;;;;23.14;40.24;102463.25;4826724;29;20426;-77
2022/06/14 08:45:57;;;;;;;2.20;1.20;;;;;;;23.19;39.73;102453.63;4826211;29;20136;-77
2022/06/14 08:48:35;;;;;;;1.92;1.20;;;;;;;23.20;39.81;102460.59;4826557;29;20060;-77
2022/06/14 08:51:18;;;;;;;2.60;1.30;;;;;;;23.18;39.76;102462.38;4826133;29;20026;-77
2022/06/14 08:54:08;;;;;;;1.58;1.00;;;;;;;23.26;39.79;102454.44;4826382;29;20040;-77
2022/06/14 08:57:01;;;;;;;2.28;1.15;;;;;;;23.25;39.65;102457.06;4826243;29;20501;-77
2022/06/14 08:59:43;;;;;;;1.88;1.10;;;;;;;23.27;39.58;102450.91;4826106;29;20469;-78
2022/06/14 09:02:33;;;;;;;2.88;1.08;;;;;;;23.27;39.38;102447.41;4826203;29;20030;-77
2022/06/14 09:05:20;;;;;;;2.45;1.00;;;;;;;23.28;39.36;102449.16;4826268;29;20130;-77
2022/06/14 09:08:14;;;;;;;2.55;1.02;;;;;;;23.28;39.63;102449.16;4826123;29;20032;-77
2022/06/14 09:10:52;;;;;;;2.67;1.00;;;;;;;23.25;39.39;102446.56;4825993;29;20410;-77
2022/06/14 09:13:41;;;;;;;1.55;0.93;;;;;;;23.27;39.33;102447.41;4842394;29;20033;-77
2022/06/14 09:16:31;;;;;;;1.77;1.00;;;;;;;23.28;39.63;102443.91;4843028;29;20485;-77
2022/06/14 09:19:24;;;;;;;1.95;0.90;;;;;;;23.28;39.67;102436.03;4830426;29;20510;-77
2022/06/14 09:22:23;;;;;;;1.92;0.90;;;;;;;23.27;39.64;102435.16;4836003;29;20042;-77
2022/06/14 09:24:59;;;;;;;2.60;1.10;;;;;;;23.18;39.33;102438.72;4829481;29;20061;-77
2022/06/14 09:27:40;;;;;;;1.88;1.02;;;;;;;23.14;39.63;102439.63;4829909;29;20034;-78
2022/06/14 09:30:11;;;;;;;1.75;0.82;;;;;;;23.15;39.84;102438.75;4829901;29;20059;-77
2022/06/14 09:33:14;;;;;;;1.80;1.13;;;;;;;23.16;39.77;102432.59;4830092;29;20041;-77
2022/06/14 09:36:06;;;;;;;2.42;1.08;;;;;;;23.11;39.87;102434.41;4846529;29;20171;-77
2022/06/14 09:38:32;;;;;;;1.50;0.82;;;;;;;23.10;39.47;102426.53;4846687;29;20041;-77
2022/06/14 09:41:19;;;;;;;2.35;1.10;;;;;;;23.07;40.34;102429.19;4831261;29;20026;-77
2022/06/14 09:43:53;;;;;;;1.27;0.90;;;;;;;23.07;40.11;102429.19;4833376;29;20041;-76
2022/06/14 09:46:40;;;;;;;2.08;1.20;;;;;;;23.03;40.46;102424.84;4832921;29;20053;-76
2022/06/14 09:49:21;;;;;;;2.25;1.23;;;;;;;22.99;39.86;102427.47;4849039;29;20034;-76
2022/06/14 09:52:40;;;;;;;2.63;1.00;;;;;;;22.98;40.04;102424.84;4831627;29;20399;-77
2022/06/14 09:55:33;;;;;;;1.65;1.00;;;;;;;22.96;40.30;102427.47;4846367;29;20102;-75
2022/06/14 09:58:17;;;;;;;1.60;1.00;;;;;;;22.94;40.21;102428.38;4829599;29;20064;-77
2022/06/14 10:01:09;;;;;;;1.88;1.08;;;;;;;22.92;40.12;102424.88;4829541;29;20026;-77
2022/06/14 10:04:12;;;;;;;2.60;1.25;;;;;;;22.91;40.25;102425.78;4820514;29;20060;-77
2022/06/14 10:06:44;;;;;;;2.47;1.10;;;;;;;22.90;39.92;102430.16;4829295;29;20029;-77
2022/06/14 10:09:47;;;;;;;2.30;1.00;;;;;;;22.89;39.84;102435.44;4829177;29;20431;-77
2022/06/14 10:12:24;;;;;;;2.10;1.10;;;;;;;22.88;40.14;102426.66;4828891;29;20034;-77
2022/06/14 10:14:53;;;;;;;1.98;1.10;;;;;;;22.87;39.92;102418.81;4828996;29;20038;-77
2022/06/14 10:17:49;;;;;;;2.97;1.30;;;;;;;22.87;40.01;102426.69;4829004;29;20022;-77
2022/06/14 10:20:27;;;;;;;2.25;1.10;;;;;;;22.87;40.12;102424.06;4828565;29;20481;-77
2022/06/14 10:23:20;;;;;;;1.27;0.95;;;;;;;22.87;39.80;102421.44;4828895;29;20087;-77
2022/06/14 10:29:25;;;;;;;2.50;0.90;;;;;;;22.88;39.66;102423.16;4829101;29;20066;-84
2022/06/14 10:32:25;;;;;;;2.53;0.98;;;;;;;22.88;39.58;102423.16;4832111;29;20121;-84
2022/06/14 10:35:24;;;;;;;1.55;0.98;;;;;;;22.88;39.88;102425.78;4849550;29;20034;-83
2022/06/14 10:37:58;;;;;;;1.13;0.80;;;;;;;22.88;39.44;102416.16;4848012;29;20434;-77
2022/06/14 10:40:39;;;;;;;2.25;1.08;;;;;;;22.89;39.60;102412.66;4828823;29;20026;-77
2022/06/14 10:43:29;;;;;;;1.45;0.95;;;;;;;22.91;39.21;102417.91;4838087;29;20046;-84
2022/06/14 10:46:00;;;;;;;1.17;0.90;;;;;;;22.91;40.20;102415.28;4854603;29;20046;-84
2022/06/14 10:49:13;;;;;;;3.00;1.02;;;;;;;22.90;39.76;102408.28;4834781;29;20049;-84
2022/06/14 10:55:45;;;;;;;2.42;1.10;;;;;;;22.94;39.70;102412.63;4988920;23;20082;-84
2022/06/14 10:58:45;;;;;;;1.80;0.93;;;;;;;22.95;39.53;102406.47;4759117;30;20075;-83
2022/06/14 11:01:27;;;;;;;2.45;1.00;;;;;;;22.95;39.46;102407.38;4757664;30;20145;-77
2022/06/14 11:04:04;;;;;;;2.27;1.00;;;;;;;22.97;39.66;102405.63;4840848;29;20033;-78
2022/06/14 11:06:35;;;;;;;1.20;1.00;;;;;;;22.98;40.14;102401.22;4846685;29;20476;-77
2022/06/14 11:09:31;;;;;;;1.50;0.95;;;;;;;22.97;39.74;102396.84;4863198;29;20037;-78
2022/06/14 11:12:19;;;;;;;1.58;0.85;;;;;;;22.98;40.04;102393.34;4846888;29;20025;-77
2022/06/14 11:15:00;;;;;;;1.60;0.90;;;;;;;22.98;40.09;102395.97;4847730;29;20029;-77
2022/06/14 11:17:40;;;;;;;1.67;1.05;;;;;;;22.98;39.91;102393.34;4848210;29;20029;-77
2022/06/14 11:20:48;;;;;;;2.35;1.15;;;;;;;22.98;39.28;102396.84;4846944;29;20021;-77
2022/06/14 11:23:22;;;;;;;1.95;0.95;;;;;;;22.99;39.66;102387.19;4804068;29;20037;-77
2022/06/14 11:26:06;;;;;;;;;;;;;;;22.99;39.56;102387.19;4850713;29;20021;-75
2022/06/14 11:29:01;;;;;;;1.70;1.00;;;;;;;22.99;39.59;102380.22;4846573;29;19936;-77
2022/06/14 11:31:42;;;;;;;1.60;0.90;;;;;;;22.98;40.03;102381.09;4781179;29;20052;-77
2022/06/14 11:34:35;;;;;;;2.00;0.95;;;;;;;22.98;39.80;102378.47;4846005;29;20025;-77
2022/06/14 11:37:20;;;;;;;1.98;1.02;;;;;;;22.97;40.09;102378.47;4846092;29;20368;-77
2022/06/14 11:39:52;;;;;;;1.80;1.05;;;;;;;22.96;40.20;102377.59;4845611;29;20430;-78
2022/06/14 11:42:25;;;;;;;1.60;0.98;;;;;;;22.96;39.81;102379.38;4846171;29;20362;-77
2022/06/14 11:45:00;;;;;;;;;;;;;;;22.96;40.00;102374.13;4846333;29;20185;-77
2022/06/14 11:47:36;;;;;;;2.80;1.00;;;;;;;22.96;39.76;102374.13;4846761;29;19919;-78
2022/06/14 11:50:36;;;;;;;2.00;1.10;;;;;;;22.96;39.90;102371.47;4845552;29;20021;-78
2022/06/14 11:53:27;;;;;;;3.60;1.05;;;;;;;22.95;39.92;102369.72;4845540;29;20069;-78
2022/06/14 11:56:05;;;;;;;2.28;1.10;;;;;;;22.96;39.73;102371.47;4845572;29;20434;-78
2022/06/14 11:59:01;;;;;;;1.70;0.90;;;;;;;22.98;39.56;102367.97;4845400;29;20072;-78
2022/06/14 12:01:46;;;;;;;2.50;1.10;;;;;;;22.98;39.07;102372.34;4862151;29;20381;-78
2022/06/14 12:04:20;;;;;;;1.67;1.02;;;;;;;22.98;39.43;102365.34;4845263;29;20093;-78
2022/06/14 12:07:36;;;;;;;2.30;1.15;;;;;;;22.98;39.37;102361.84;4845515;29;20430;-78
2022/06/14 12:10:25;;;;;;;3.85;1.20;;;;;;;22.98;38.87;102365.34;4788831;30;20096;-77
2022/06/14 12:13:00;;;;;;;1.83;1.10;;;;;;;22.98;40.44;102367.09;4772314;30;20035;-78
2022/06/14 12:15:58;;;;;;;3.17;1.20;;;;;;;22.98;40.39;102364.47;4827927;29;20033;-78
2022/06/14 12:18:28;;;;;;;2.33;1.05;;;;;;;22.99;39.64;102359.22;4861841;29;20037;-78
2022/06/14 12:21:02;;;;;;;3.03;1.08;;;;;;;22.98;39.64;102357.47;4862086;29;20033;-78
2022/06/14 12:23:41;;;;;;;2.08;1.00;;;;;;;22.99;39.83;102355.69;4862048;29;20033;-76
2022/06/14 12:29:24;;;;;;;3.03;1.17;;;;;;;23.02;39.97;102352.19;4862215;29;20066;-78
2022/06/14 12:32:18;;;;;;;4.05;1.20;;;;;;;23.02;40.02;102350.47;4861901;29;20077;-78
2022/06/14 12:34:55;;;;;;;1.50;0.90;;;;;;;23.02;40.47;102341.69;4845049;29;20030;-78
2022/06/14 12:37:41;;;;;;;4.68;1.00;;;;;;;23.02;40.14;102342.59;4861661;29;20039;-78
2022/06/14 12:40:12;;;;;;;2.22;1.10;;;;;;;23.04;40.09;102340.84;4844779;29;20021;-78
2022/06/14 12:42:58;;;;;;;1.48;0.90;;;;;;;23.05;40.26;102337.31;4861622;29;20036;-78
2022/06/14 12:45:44;;;;;;;1.95;0.98;;;;;;;23.07;40.10;102335.53;4862641;29;20073;-77
2022/06/14 12:48:46;;;;;;;2.03;1.10;;;;;;;23.09;39.65;102336.41;4845150;29;20021;-78
2022/06/14 12:51:16;;;;;;;2.05;1.05;;;;;;;23.11;39.64;102331.16;4866620;29;20454;-78
2022/06/14 12:54:11;;;;;;;2.05;0.82;;;;;;;23.12;40.20;102333.72;4865165;29;20093;-78
2022/06/14 12:56:51;;;;;;;1.58;1.05;;;;;;;23.14;39.65;102333.72;4834650;29;20441;-77
2022/06/14 12:59:32;;;;;;;1.98;1.00;;;;;;;23.14;39.63;102331.09;4848590;29;20053;-77
2022/06/14 13:02:22;;;;;;;2.83;1.00;;;;;;;23.14;40.24;102329.34;4848472;29;20033;-78
2022/06/14 13:04:55;;;;;;;2.45;1.00;;;;;;;23.12;40.09;102336.34;4865246;29;20034;-78
2022/06/14 13:07:31;;;;;;;;;;;;;;;23.12;39.91;102333.72;4865834;29;20116;-78
2022/06/14 13:10:26;;;;;;;2.20;0.98;;;;;;;23.12;40.27;102335.50;4848178;29;20268;-77
2022/06/14 13:13:03;;;;;;;1.88;1.00;;;;;;;23.12;40.11;102331.09;4821289;29;20132;-78
2022/06/14 13:15:58;;;;;;;1.23;0.93;;;;;;;23.11;39.96;102337.25;4865248;29;20030;-78
2022/06/14 13:18:57;;;;;;;1.27;0.90;;;;;;;23.10;40.27;102327.63;4848480;29;20037;-77
2022/06/14 13:21:55;;;;;;;2.22;0.90;;;;;;;23.10;39.66;102330.25;4864783;29;20025;-78
2022/06/14 13:24:36;;;;;;;1.15;0.98;;;;;;;23.11;40.28;102331.16;4864838;29;20037;-78
2022/06/14 13:27:27;;;;;;;2.58;1.17;;;;;;;23.11;40.37;102328.50;4848183;29;20129;-77
2022/06/14 13:29:57;;;;;;;1.77;1.00;;;;;;;23.10;40.10;102324.13;4848476;29;20030;-77
2022/06/14 13:32:49;;;;;;;2.22;1.30;;;;;;;23.09;40.01;102325.03;4854539;29;20057;-77
2022/06/14 13:35:29;;;;;;;2.47;0.90;;;;;;;23.08;40.45;102323.28;4823464;29;20133;-77